Time;durP1;ratioP1;P1;durP2;ratioP2;P2;SDS_P1;SDS_P2;PMS_P1;PMS_P2;Temp;Humidity;BMP_temperature;BMP_pressure;BME280_temperature;BME280_humidity;BME280_pressure;Samples;Min_cycle;Max_cycle;Signal;HPM_P1;HPM_P2
2022/11/27 00:00:22;;;;;;;18.52;7.70;;;6.70;99.90;;;;;;5113469;28;20416;-62
2022/11/27 00:02:47;;;;;;;25.05;7.78;;;6.60;99.90;;;;;;5113287;28;20048;-62
2022/11/27 00:05:13;;;;;;;21.48;6.95;;;6.70;99.90;;;;;;5114772;28;20046;-62
2022/11/27 00:07:39;;;;;;;16.42;6.90;;;6.70;99.90;;;;;;5115068;28;20036;-62
2022/11/27 00:10:06;;;;;;;16.10;6.65;;;6.60;99.90;;;;;;5112380;28;20044;-62
2022/11/27 00:12:31;;;;;;;17.90;7.90;;;6.60;99.90;;;;;;5096899;28;20035;-62
2022/11/27 00:14:57;;;;;;;19.77;7.80;;;6.60;99.90;;;;;;5115096;28;20098;-62
2022/11/27 00:17:23;;;;;;;14.90;6.55;;;6.60;99.90;;;;;;5112753;28;20058;-62
2022/11/27 00:19:49;;;;;;;19.63;6.93;;;6.60;99.90;;;;;;5114015;28;20039;-62
2022/11/27 00:22:15;;;;;;;13.98;5.90;;;6.60;99.90;;;;;;5114363;28;20084;-62
2022/11/27 00:24:42;;;;;;;22.30;6.63;;;6.60;99.90;;;;;;5112819;28;20040;-62
2022/11/27 00:27:08;;;;;;;16.92;5.90;;;6.60;99.90;;;;;;5112815;28;20066;-62
2022/11/27 00:29:34;;;;;;;20.20;6.90;;;6.60;99.90;;;;;;5112700;28;20035;-62
2022/11/27 00:32:00;;;;;;;18.85;7.32;;;6.60;99.90;;;;;;5114847;28;20088;-62
2022/11/27 00:34:25;;;;;;;16.58;6.00;;;6.60;99.90;;;;;;5095690;28;20032;-62
2022/11/27 00:36:51;;;;;;;14.82;6.32;;;6.60;99.90;;;;;;5095685;28;20085;-62
2022/11/27 00:39:17;;;;;;;18.02;7.15;;;6.60;99.90;;;;;;5112839;28;20039;-62
2022/11/27 00:41:42;;;;;;;17.92;6.80;;;6.60;99.90;;;;;;5114515;28;20118;-61
2022/11/27 00:44:08;;;;;;;17.75;6.50;;;6.50;99.90;;;;;;5111750;28;20480;-62
2022/11/27 00:46:34;;;;;;;24.98;7.43;;;6.60;99.90;;;;;;5114626;28;20384;-62
2022/11/27 00:49:03;;;;;;;12.18;5.60;;;6.60;99.90;;;;;;5113136;28;20484;-62
2022/11/27 00:51:29;;;;;;;14.80;6.18;;;6.60;99.90;;;;;;5095145;28;20044;-61
2022/11/27 00:53:55;;;;;;;21.83;6.20;;;6.50;99.90;;;;;;5112933;28;20049;-61
2022/11/27 00:56:29;;;;;;;15.63;7.25;;;6.50;99.90;;;;;;5113775;28;20082;-62
2022/11/27 00:58:56;;;;;;;15.25;6.32;;;6.50;99.90;;;;;;5112243;28;20079;-62
2022/11/27 01:01:31;;;;;;;17.63;5.78;;;6.50;99.90;;;;;;5114065;28;20043;-61
2022/11/27 01:03:58;;;;;;;13.20;5.93;;;6.50;99.90;;;;;;5112844;28;20055;-62
2022/11/27 01:06:24;;;;;;;16.30;6.90;;;6.50;99.90;;;;;;5111395;28;20084;-62
2022/11/27 01:08:50;;;;;;;15.32;6.05;;;6.50;99.90;;;;;;5112429;28;20122;-62
2022/11/27 01:11:19;;;;;;;14.90;6.72;;;6.50;99.90;;;;;;5095220;28;20075;-62
2022/11/27 01:13:44;;;;;;;18.02;6.13;;;6.50;99.90;;;;;;5111900;28;20035;-61
2022/11/27 01:16:13;;;;;;;19.23;5.93;;;6.50;99.90;;;;;;5113216;28;20043;-61
2022/11/27 01:18:41;;;;;;;14.50;6.68;;;6.50;99.90;;;;;;5111787;28;20119;-62
2022/11/27 01:21:07;;;;;;;17.48;5.38;;;6.50;99.90;;;;;;5095026;28;20039;-62
2022/11/27 01:23:33;;;;;;;14.05;5.68;;;6.50;99.90;;;;;;5095426;28;20446;-62
2022/11/27 01:26:00;;;;;;;17.48;6.15;;;6.40;99.90;;;;;;5111600;28;20039;-62
2022/11/27 01:28:26;;;;;;;13.93;5.50;;;6.50;99.90;;;;;;5111326;28;20156;-61
2022/11/27 01:30:52;;;;;;;14.20;6.32;;;6.30;99.90;;;;;;5112190;28;20126;-62
2022/11/27 01:33:18;;;;;;;13.05;5.85;;;6.40;99.90;;;;;;5093896;28;20043;-62
2022/11/27 01:35:55;;;;;;;15.65;6.28;;;6.40;99.90;;;;;;5113760;28;20141;-62
2022/11/27 01:38:22;;;;;;;21.75;6.07;;;6.40;99.90;;;;;;5112692;28;20118;-62
2022/11/27 01:40:47;;;;;;;17.55;5.72;;;6.40;99.90;;;;;;5094373;28;20051;-62
2022/11/27 01:43:16;;;;;;;17.70;5.45;;;6.40;99.90;;;;;;5094507;28;20039;-62
2022/11/27 01:45:43;;;;;;;13.60;5.70;;;6.40;99.90;;;;;;5112166;28;20396;-62
2022/11/27 01:48:12;;;;;;;18.92;5.25;;;6.40;99.90;;;;;;5093950;28;20384;-61
2022/11/27 01:50:38;;;;;;;14.95;5.95;;;6.40;99.90;;;;;;5094997;28;20042;-62
2022/11/27 01:53:12;;;;;;;13.52;6.03;;;6.40;99.90;;;;;;5111491;28;20507;-62
2022/11/27 01:55:44;;;;;;;13.45;5.30;;;6.40;99.90;;;;;;5094440;28;20039;-62
2022/11/27 01:58:14;;;;;;;14.35;6.10;;;6.40;99.90;;;;;;5112424;28;20052;-62
2022/11/27 02:00:39;;;;;;;17.98;5.85;;;6.50;99.90;;;;;;5112129;28;20062;-62
2022/11/27 02:03:05;;;;;;;20.55;6.70;;;6.50;99.90;;;;;;5110395;28;20043;-62
2022/11/27 02:05:32;;;;;;;13.50;5.90;;;6.50;99.90;;;;;;5111950;28;20039;-62
2022/11/27 02:08:01;;;;;;;13.25;5.43;;;6.50;99.90;;;;;;5111085;28;20043;-62
2022/11/27 02:10:56;;;;;;;14.00;5.97;;;6.50;99.90;;;;;;5111062;28;20039;-61
2022/11/27 02:13:28;;;;;;;15.65;5.55;;;6.50;99.90;;;;;;5096960;28;20051;-61
2022/11/27 02:16:22;;;;;;;12.80;5.68;;;6.50;99.90;;;;;;5110862;28;20042;-61
2022/11/27 02:19:11;;;;;;;15.20;5.80;;;6.50;99.90;;;;;;5094573;28;20092;-61
2022/11/27 02:21:50;;;;;;;15.43;5.78;;;6.50;99.90;;;;;;5111579;28;20044;-62
2022/11/27 02:24:21;;;;;;;14.82;6.15;;;6.50;99.90;;;;;;5093522;28;20169;-62
2022/11/27 02:27:22;;;;;;;13.73;5.15;;;6.50;99.90;;;;;;5111649;28;20036;-61
2022/11/27 02:29:53;;;;;;;18.08;5.80;;;6.50;99.90;;;;;;5067752;28;20051;-62
2022/11/27 02:32:34;;;;;;;15.23;5.50;;;6.50;99.90;;;;;;5111159;28;20043;-62
2022/11/27 02:35:13;;;;;;;14.82;5.20;;;6.50;99.90;;;;;;5111689;28;20391;-62
2022/11/27 02:37:48;;;;;;;16.25;5.95;;;6.60;99.90;;;;;;5110815;28;20039;-62
2022/11/27 02:40:22;;;;;;;11.00;5.32;;;6.50;99.90;;;;;;5112241;28;20047;-63
2022/11/27 02:43:00;;;;;;;14.98;5.97;;;6.50;99.90;;;;;;5115470;28;20047;-63
2022/11/27 02:45:41;;;;;;;12.30;5.45;;;6.60;99.90;;;;;;5115218;28;20039;-62
2022/11/27 02:48:09;;;;;;;15.98;5.90;;;6.60;99.90;;;;;;5115242;28;20036;-63
2022/11/27 02:50:38;;;;;;;11.50;5.22;;;6.60;99.90;;;;;;5114605;28;20109;-63
2022/11/27 02:53:12;;;;;;;14.52;6.05;;;6.60;99.90;;;;;;5116353;28;20036;-62
2022/11/27 02:55:41;;;;;;;16.95;4.82;;;6.60;99.90;;;;;;5098454;28;20110;-63
2022/11/27 02:58:12;;;;;;;14.70;6.85;;;6.60;99.90;;;;;;5113888;28;20404;-63
2022/11/27 03:00:40;;;;;;;16.73;6.28;;;6.60;99.90;;;;;;5115234;28;20621;-63
2022/11/27 03:03:08;;;;;;;15.30;5.03;;;6.60;99.90;;;;;;5115605;28;20084;-63
2022/11/27 03:05:39;;;;;;;10.93;4.82;;;6.70;99.90;;;;;;5114173;28;20040;-63
2022/11/27 03:08:09;;;;;;;13.43;5.50;;;6.70;99.90;;;;;;5114502;28;20050;-63
2022/11/27 03:10:47;;;;;;;15.48;5.45;;;6.70;99.90;;;;;;5116865;28;20039;-63
2022/11/27 03:13:13;;;;;;;12.80;5.03;;;6.70;99.90;;;;;;5113561;28;20043;-63
2022/11/27 03:16:02;;;;;;;12.70;4.53;;;6.60;99.90;;;;;;5097841;28;20373;-63
2022/11/27 03:18:51;;;;;;;11.52;4.72;;;6.60;99.90;;;;;;5096725;28;20047;-63
2022/11/27 03:21:19;;;;;;;12.02;4.45;;;6.60;99.90;;;;;;5103450;28;20130;-63
2022/11/27 03:23:45;;;;;;;14.05;5.40;;;6.60;99.90;;;;;;5114595;28;20503;-63
2022/11/27 03:26:11;;;;;;;9.73;4.63;;;6.60;99.90;;;;;;5113567;28;20040;-63
2022/11/27 03:28:37;;;;;;;15.50;7.28;;;6.60;99.90;;;;;;5114714;28;20047;-63
2022/11/27 03:31:02;;;;;;;12.57;5.53;;;6.60;99.90;;;;;;5097643;28;20450;-63
2022/11/27 03:33:28;;;;;;;12.70;4.10;;;6.60;99.90;;;;;;5113268;28;20096;-63
2022/11/27 03:35:54;;;;;;;15.00;5.00;;;6.60;99.90;;;;;;5115679;28;20176;-63
2022/11/27 03:38:19;;;;;;;20.08;5.65;;;6.60;99.90;;;;;;5114014;28;20050;-63
2022/11/27 03:40:57;;;;;;;12.95;5.35;;;6.60;99.90;;;;;;5115251;28;20043;-63
2022/11/27 03:43:30;;;;;;;10.43;5.55;;;6.60;99.90;;;;;;5113918;28;20834;-63
2022/11/27 03:46:05;;;;;;;12.88;5.90;;;6.60;99.90;;;;;;5114612;28;20043;-63
2022/11/27 03:48:43;;;;;;;13.82;6.00;;;6.50;99.90;;;;;;5113736;28;20472;-63
2022/11/27 03:51:36;;;;;;;18.70;6.25;;;6.60;99.90;;;;;;5113405;28;20126;-63
2022/11/27 03:54:14;;;;;;;14.63;6.47;;;6.50;99.90;;;;;;5096383;28;20071;-63
2022/11/27 03:57:07;;;;;;;11.95;5.32;;;6.50;99.90;;;;;;5113896;28;20043;-63
2022/11/27 03:59:38;;;;;;;18.10;6.70;;;6.50;99.90;;;;;;5112965;28;20077;-63
2022/11/27 04:02:03;;;;;;;9.25;5.38;;;6.50;99.90;;;;;;5095072;28;20061;-63
2022/11/27 04:04:29;;;;;;;20.20;6.10;;;6.50;99.90;;;;;;5112647;28;20035;-63
2022/11/27 04:06:54;;;;;;;16.17;6.35;;;6.50;99.90;;;;;;5114005;28;20039;-63
2022/11/27 04:09:20;;;;;;;15.85;6.00;;;6.50;99.90;;;;;;5111536;28;20100;-63
2022/11/27 04:11:46;;;;;;;11.82;4.93;;;6.50;99.90;;;;;;5112737;28;20105;-63
2022/11/27 04:14:11;;;;;;;10.25;5.05;;;6.50;99.90;;;;;;5113554;28;20477;-64
2022/11/27 04:16:37;;;;;;;12.65;6.07;;;6.50;99.90;;;;;;5113432;28;20400;-64
2022/11/27 04:19:03;;;;;;;11.73;5.35;;;6.50;99.90;;;;;;5112893;28;20377;-64
2022/11/27 04:21:28;;;;;;;17.67;5.85;;;6.50;99.90;;;;;;5094775;28;20043;-64
2022/11/27 04:23:54;;;;;;;10.43;5.82;;;6.50;99.90;;;;;;5112561;28;20040;-64
2022/11/27 04:26:20;;;;;;;14.77;6.05;;;6.50;99.90;;;;;;5111860;28;20039;-64
2022/11/27 04:28:45;;;;;;;10.95;5.05;;;6.50;99.90;;;;;;5113256;28;20081;-64
2022/11/27 04:31:11;;;;;;;12.25;5.65;;;6.50;99.90;;;;;;5113492;28;20031;-64
2022/11/27 04:33:37;;;;;;;14.23;6.32;;;6.50;99.90;;;;;;5113698;28;20092;-64
2022/11/27 04:36:02;;;;;;;13.32;5.63;;;6.50;99.90;;;;;;5111591;28;20054;-63
2022/11/27 04:38:28;;;;;;;15.05;5.07;;;6.50;99.90;;;;;;5111908;28;20035;-64
2022/11/27 04:40:54;;;;;;;15.75;5.40;;;6.60;99.90;;;;;;5112237;28;20040;-64
2022/11/27 04:43:19;;;;;;;12.73;5.15;;;6.50;99.90;;;;;;5110885;28;20054;-64
2022/11/27 04:45:45;;;;;;;20.23;5.90;;;6.50;99.90;;;;;;5095543;28;20046;-64
2022/11/27 04:48:11;;;;;;;18.15;5.95;;;6.50;99.90;;;;;;5111509;28;20035;-64
2022/11/27 04:50:36;;;;;;;16.27;5.63;;;6.50;99.90;;;;;;5112711;28;20035;-64
2022/11/27 04:53:02;;;;;;;11.85;5.25;;;6.60;99.90;;;;;;5112143;28;20047;-64
2022/11/27 04:55:28;;;;;;;14.20;5.13;;;6.60;99.90;;;;;;5111490;28;20047;-64
2022/11/27 04:57:54;;;;;;;11.93;4.88;;;6.60;99.90;;;;;;5072831;28;1101756;-63
2022/11/27 05:00:20;;;;;;;14.30;5.75;;;6.60;99.90;;;;;;5112397;28;20050;-63
2022/11/27 05:02:45;;;;;;;11.95;5.07;;;6.60;99.90;;;;;;5112205;28;20047;-63
2022/11/27 05:05:11;;;;;;;9.82;5.47;;;6.60;99.90;;;;;;5111366;28;20039;-64
2022/11/27 05:07:42;;;;;;;10.73;5.13;;;6.60;99.90;;;;;;5113025;28;20492;-63
2022/11/27 05:10:08;;;;;;;9.38;4.82;;;6.60;99.90;;;;;;5113393;28;20373;-63
2022/11/27 05:12:34;;;;;;;13.00;5.43;;;6.60;99.90;;;;;;5111906;28;20031;-64
2022/11/27 05:14:59;;;;;;;14.27;5.28;;;6.60;99.90;;;;;;5112721;28;20047;-63
2022/11/27 05:17:25;;;;;;;14.02;5.53;;;6.60;99.90;;;;;;5112476;28;20055;-63
2022/11/27 05:19:50;;;;;;;12.63;5.95;;;6.60;99.90;;;;;;5113241;28;20468;-63
2022/11/27 05:22:16;;;;;;;9.50;4.75;;;6.60;99.90;;;;;;5113265;28;20035;-63
2022/11/27 05:24:42;;;;;;;10.88;5.13;;;6.60;99.90;;;;;;5112180;28;20047;-63
2022/11/27 05:27:07;;;;;;;14.95;5.07;;;6.60;99.90;;;;;;5111293;28;20046;-63
2022/11/27 05:29:33;;;;;;;9.70;4.25;;;6.60;99.90;;;;;;5112353;28;20031;-64
2022/11/27 05:31:58;;;;;;;15.18;5.00;;;6.60;99.90;;;;;;5112678;28;20032;-63
2022/11/27 05:34:24;;;;;;;13.90;5.38;;;6.60;99.90;;;;;;5111633;28;20039;-65
2022/11/27 05:36:50;;;;;;;12.70;4.97;;;6.60;99.90;;;;;;5113534;28;20040;-64
2022/11/27 05:39:16;;;;;;;14.98;4.53;;;6.60;99.90;;;;;;5111063;28;20046;-64
2022/11/27 05:41:42;;;;;;;12.93;5.82;;;6.60;99.90;;;;;;5095193;28;20484;-64
2022/11/27 05:44:11;;;;;;;10.45;4.70;;;6.60;99.90;;;;;;5111360;28;20473;-63
2022/11/27 05:46:37;;;;;;;11.43;5.05;;;6.60;99.90;;;;;;5112597;28;20067;-64
2022/11/27 05:49:05;;;;;;;13.98;5.15;;;6.60;99.90;;;;;;5112140;28;20071;-62
2022/11/27 05:51:30;;;;;;;13.50;4.75;;;6.60;99.90;;;;;;5111978;28;20476;-63
2022/11/27 05:53:56;;;;;;;11.57;4.53;;;6.60;99.90;;;;;;5112393;28;20084;-63
2022/11/27 05:56:22;;;;;;;8.40;3.80;;;6.60;99.90;;;;;;5111403;28;20148;-63
2022/11/27 05:58:48;;;;;;;13.30;5.18;;;6.70;99.90;;;;;;5094513;28;20404;-63
2022/11/27 06:01:15;;;;;;;9.13;4.57;;;6.60;99.90;;;;;;5110559;28;20043;-63
2022/11/27 06:03:41;;;;;;;10.10;4.57;;;6.60;99.90;;;;;;5111907;28;20514;-63
2022/11/27 06:06:16;;;;;;;10.25;3.63;;;6.60;99.90;;;;;;5111307;28;20039;-63
2022/11/27 06:08:43;;;;;;;8.63;4.25;;;6.60;99.90;;;;;;5112451;28;20042;-63
2022/11/27 06:11:11;;;;;;;13.43;4.43;;;6.60;99.90;;;;;;5111289;28;20046;-63
2022/11/27 06:13:36;;;;;;;10.48;4.18;;;6.60;99.90;;;;;;5112941;28;20381;-63
2022/11/27 06:16:20;;;;;;;13.07;4.40;;;6.60;99.90;;;;;;5110843;28;20104;-63
2022/11/27 06:18:52;;;;;;;11.02;4.10;;;6.60;99.90;;;;;;5111154;28;20100;-63
2022/11/27 06:21:18;;;;;;;10.35;4.68;;;6.60;99.90;;;;;;5110606;28;20466;-63
2022/11/27 06:23:44;;;;;;;7.68;3.88;;;6.50;99.90;;;;;;5110783;28;20051;-63
2022/11/27 06:26:19;;;;;;;14.82;4.85;;;6.50;99.90;;;;;;5093683;28;20036;-63
2022/11/27 06:28:46;;;;;;;;;;;6.50;99.90;;;;;;5111271;28;20046;-63
2022/11/27 06:31:17;;;;;;;13.93;5.22;;;6.50;99.90;;;;;;5110872;28;19923;-63
2022/11/27 06:33:43;;;;;;;11.00;3.70;;;6.50;99.90;;;;;;5112709;28;20434;-63
2022/11/27 06:36:09;;;;;;;10.93;3.78;;;6.50;99.90;;;;;;5110230;28;20036;-63
2022/11/27 06:38:36;;;;;;;13.43;4.43;;;6.60;99.90;;;;;;5112997;28;20051;-63
2022/11/27 06:41:10;;;;;;;8.20;3.80;;;6.50;99.90;;;;;;5094816;28;20430;-63
2022/11/27 06:43:37;;;;;;;17.63;4.07;;;6.50;99.90;;;;;;5110582;28;20492;-63
2022/11/27 06:46:04;;;;;;;8.70;4.30;;;6.50;99.90;;;;;;5111327;28;20044;-63
2022/11/27 06:48:30;;;;;;;9.65;3.95;;;6.50;99.90;;;;;;5110653;28;20071;-63
2022/11/27 06:51:01;;;;;;;9.57;4.07;;;6.50;99.90;;;;;;5109998;28;20085;-62
2022/11/27 06:53:28;;;;;;;11.18;4.10;;;6.50;99.90;;;;;;5109005;28;20044;-63
2022/11/27 06:55:53;;;;;;;8.50;3.72;;;6.50;99.90;;;;;;5111396;28;20131;-62
2022/11/27 06:58:19;;;;;;;9.77;3.50;;;6.50;99.90;;;;;;5109286;28;20132;-62
2022/11/27 07:00:46;;;;;;;13.32;4.82;;;6.50;99.90;;;;;;5111164;28;20040;-62
2022/11/27 07:03:11;;;;;;;13.38;3.88;;;6.50;99.90;;;;;;5110407;28;20151;-62
2022/11/27 07:05:37;;;;;;;8.35;3.85;;;6.50;99.90;;;;;;5110827;28;20541;-63
2022/11/27 07:08:03;;;;;;;10.77;4.47;;;6.40;99.90;;;;;;5112566;28;20044;-63
2022/11/27 07:10:31;;;;;;;9.57;4.15;;;6.40;99.90;;;;;;5110381;28;20076;-63
2022/11/27 07:12:57;;;;;;;12.25;3.97;;;6.40;99.90;;;;;;5111015;28;20043;-62
2022/11/27 07:15:23;;;;;;;8.00;4.47;;;6.40;99.90;;;;;;5110826;28;20039;-62
2022/11/27 07:17:48;;;;;;;9.40;4.32;;;6.40;99.90;;;;;;5093574;28;20075;-63
2022/11/27 07:20:14;;;;;;;9.63;4.13;;;6.40;99.90;;;;;;5093713;28;20086;-63
2022/11/27 07:22:40;;;;;;;9.75;4.07;;;6.40;99.90;;;;;;5110270;28;20430;-62
2022/11/27 07:25:06;;;;;;;8.95;4.03;;;6.40;99.90;;;;;;5111151;28;20040;-62
2022/11/27 07:27:31;;;;;;;9.15;4.20;;;6.50;99.90;;;;;;5113144;28;20032;-62
2022/11/27 07:29:57;;;;;;;9.45;3.90;;;6.50;99.90;;;;;;5115153;28;20114;-63
2022/11/27 07:32:23;;;;;;;10.43;3.78;;;6.50;99.90;;;;;;5114669;28;21191;-63
2022/11/27 07:34:48;;;;;;;8.27;3.65;;;6.50;99.90;;;;;;5097699;28;20044;-63
2022/11/27 07:37:14;;;;;;;9.82;4.70;;;6.50;99.90;;;;;;5113572;28;20035;-63
2022/11/27 07:39:39;;;;;;;7.22;3.78;;;6.50;99.90;;;;;;5115404;28;20036;-62
2022/11/27 07:42:05;;;;;;;12.48;4.35;;;6.50;99.90;;;;;;5114973;28;20365;-62
2022/11/27 07:44:31;;;;;;;10.10;4.00;;;6.50;99.90;;;;;;5115848;28;20031;-63
2022/11/27 07:46:56;;;;;;;9.00;3.53;;;6.50;99.90;;;;;;5113665;28;20502;-62
2022/11/27 07:49:22;;;;;;;8.35;4.13;;;6.60;99.90;;;;;;5115205;28;20035;-63
2022/11/27 07:51:47;;;;;;;9.35;3.85;;;6.60;99.90;;;;;;5113794;28;20038;-62
2022/11/27 07:54:13;;;;;;;7.82;3.30;;;6.60;99.90;;;;;;5113347;28;20031;-62
2022/11/27 07:56:38;;;;;;;7.25;3.35;;;6.60;99.90;;;;;;5114211;28;20040;-63
2022/11/27 07:59:04;;;;;;;6.95;3.30;;;6.60;99.90;;;;;;5113689;28;20052;-62
2022/11/27 08:01:30;;;;;;;7.95;3.33;;;6.60;99.90;;;;;;5113448;28;20039;-62
2022/11/27 08:03:55;;;;;;;7.72;3.83;;;6.60;99.90;;;;;;5113547;28;20031;-62
2022/11/27 08:06:24;;;;;;;8.13;3.42;;;6.60;99.90;;;;;;5114331;28;20036;-62
2022/11/27 08:08:50;;;;;;;8.13;3.72;;;6.70;99.90;;;;;;5114083;28;20093;-63
2022/11/27 08:11:16;;;;;;;8.05;3.67;;;6.60;99.90;;;;;;5113161;28;20387;-62
2022/11/27 08:13:42;;;;;;;9.82;3.50;;;6.70;99.90;;;;;;5096201;28;20369;-62
2022/11/27 08:16:08;;;;;;;6.80;3.10;;;6.70;99.90;;;;;;5114464;28;20047;-62
2022/11/27 08:18:33;;;;;;;6.80;3.35;;;6.60;99.90;;;;;;5113500;28;20046;-63
2022/11/27 08:21:00;;;;;;;11.18;4.35;;;6.70;99.90;;;;;;5112712;28;20070;-63
2022/11/27 08:23:25;;;;;;;11.00;4.38;;;6.60;99.90;;;;;;5112788;28;20070;-62
2022/11/27 08:25:52;;;;;;;10.07;3.63;;;6.60;99.90;;;;;;5096175;28;20067;-62
2022/11/27 08:28:17;;;;;;;10.00;3.67;;;6.60;99.90;;;;;;5112171;28;20044;-62
2022/11/27 08:30:43;;;;;;;8.57;3.55;;;6.60;99.90;;;;;;5112224;28;20395;-63
2022/11/27 08:33:11;;;;;;;9.32;3.45;;;6.60;99.90;;;;;;5113280;28;20051;-63
2022/11/27 08:35:36;;;;;;;11.73;4.13;;;6.50;99.90;;;;;;5112781;28;20047;-63
2022/11/27 08:38:02;;;;;;;13.93;4.47;;;6.60;99.90;;;;;;5112689;28;20043;-63
2022/11/27 08:40:28;;;;;;;8.30;4.30;;;6.50;99.90;;;;;;5105211;28;20476;-62
2022/11/27 08:42:53;;;;;;;9.63;3.55;;;6.50;99.90;;;;;;5091109;28;20040;-63
2022/11/27 08:45:19;;;;;;;10.30;3.60;;;6.60;99.90;;;;;;5090065;28;20503;-63
2022/11/27 08:47:45;;;;;;;8.73;3.63;;;6.60;99.90;;;;;;5099337;28;20078;-63
2022/11/27 08:50:10;;;;;;;10.82;3.88;;;6.50;99.90;;;;;;5109193;28;20388;-63
2022/11/27 08:52:36;;;;;;;8.85;3.95;;;6.50;99.90;;;;;;5109800;28;20043;-62
2022/11/27 08:55:02;;;;;;;8.43;3.67;;;6.60;99.90;;;;;;5110114;28;20048;-62
2022/11/27 08:57:28;;;;;;;11.23;4.65;;;6.60;99.90;;;;;;5108243;28;20067;-65
2022/11/27 08:59:53;;;;;;;11.80;4.55;;;6.50;99.90;;;;;;5109501;28;20047;-65
2022/11/27 09:02:19;;;;;;;9.77;4.10;;;6.60;99.90;;;;;;5092387;28;20043;-65
2022/11/27 09:04:45;;;;;;;10.10;4.45;;;6.60;99.90;;;;;;5109655;28;20384;-65
2022/11/27 09:07:12;;;;;;;8.23;3.67;;;6.50;99.90;;;;;;5109132;28;20038;-64
2022/11/27 09:09:38;;;;;;;10.15;4.40;;;6.50;99.90;;;;;;5107020;28;20035;-65
2022/11/27 09:12:04;;;;;;;10.50;4.80;;;6.50;99.90;;;;;;5091212;28;20359;-65
2022/11/27 09:14:30;;;;;;;11.20;3.80;;;6.50;99.90;;;;;;5091128;28;20123;-65
2022/11/27 09:16:55;;;;;;;9.93;4.28;;;6.50;99.90;;;;;;5109446;28;20039;-65
2022/11/27 09:19:21;;;;;;;12.32;4.40;;;6.50;99.90;;;;;;5074961;28;20109;-65
2022/11/27 09:21:49;;;;;;;10.63;5.15;;;6.50;99.90;;;;;;5090138;28;20059;-65
2022/11/27 09:24:15;;;;;;;10.38;4.13;;;6.40;99.90;;;;;;5091615;28;20439;-65
2022/11/27 09:26:41;;;;;;;11.70;4.18;;;6.40;99.90;;;;;;5092288;28;20469;-65
2022/11/27 09:29:06;;;;;;;13.75;5.05;;;6.40;99.90;;;;;;5077548;28;20036;-65
2022/11/27 09:31:32;;;;;;;9.68;4.95;;;6.40;99.90;;;;;;5099826;28;20047;-65
2022/11/27 09:33:58;;;;;;;13.60;4.75;;;6.40;99.90;;;;;;5091974;28;20050;-64
2022/11/27 09:36:25;;;;;;;14.73;4.80;;;6.40;99.90;;;;;;5108035;28;20411;-64
2022/11/27 09:38:51;;;;;;;10.00;4.50;;;6.40;99.90;;;;;;5107675;28;20043;-64
2022/11/27 09:41:32;;;;;;;8.90;3.83;;;6.40;99.90;;;;;;5090207;28;20039;-65
2022/11/27 09:44:25;;;;;;;10.80;3.92;;;6.50;99.90;;;;;;5101012;28;20090;-64
2022/11/27 09:46:53;;;;;;;12.35;4.43;;;6.40;99.90;;;;;;5072516;28;20047;-64
2022/11/27 09:49:46;;;;;;;10.13;4.38;;;6.40;99.90;;;;;;5108937;28;20043;-64
2022/11/27 09:52:28;;;;;;;11.98;5.60;;;6.40;99.90;;;;;;5080155;28;20087;-64
2022/11/27 09:55:00;;;;;;;12.00;4.13;;;6.50;99.90;;;;;;5105519;28;20047;-64
2022/11/27 09:57:31;;;;;;;12.63;4.78;;;6.40;99.90;;;;;;5097025;28;20532;-64
2022/11/27 10:00:11;;;;;;;10.55;5.00;;;6.50;99.90;;;;;;5087770;28;20126;-64
2022/11/27 10:02:39;;;;;;;8.90;4.72;;;6.50;99.90;;;;;;5089370;28;20112;-64
2022/11/27 10:05:14;;;;;;;9.82;4.88;;;6.50;99.90;;;;;;5090959;28;20049;-64
2022/11/27 10:07:58;;;;;;;13.55;6.18;;;6.40;99.90;;;;;;5109311;28;20167;-64
2022/11/27 10:11:08;;;;;;;11.40;5.25;;;6.40;99.90;;;;;;5109907;28;20116;-64
2022/11/27 10:13:46;;;;;;;11.50;5.57;;;6.40;99.90;;;;;;5086287;28;20058;-63
2022/11/27 10:16:39;;;;;;;12.10;5.68;;;6.50;99.90;;;;;;5107968;28;20089;-63
2022/11/27 10:19:20;;;;;;;11.43;5.05;;;6.50;99.90;;;;;;5109931;28;20436;-63
2022/11/27 10:22:03;;;;;;;10.48;4.78;;;6.40;99.90;;;;;;5091233;28;20525;-63
2022/11/27 10:24:44;;;;;;;9.88;5.53;;;6.50;99.90;;;;;;5108425;28;20054;-63
2022/11/27 10:27:35;;;;;;;10.80;4.60;;;6.50;99.90;;;;;;5107674;28;20484;-63
2022/11/27 10:30:03;;;;;;;11.07;5.18;;;6.50;99.90;;;;;;5108554;28;20438;-63
2022/11/27 10:32:32;;;;;;;9.55;5.15;;;6.50;99.90;;;;;;5108264;28;20074;-63
2022/11/27 10:35:21;;;;;;;13.63;4.90;;;6.50;99.90;;;;;;5107632;28;20496;-63
2022/11/27 10:37:59;;;;;;;12.05;6.18;;;6.50;99.90;;;;;;5107870;28;20062;-63
2022/11/27 10:40:30;;;;;;;10.45;4.65;;;6.50;99.90;;;;;;5109105;28;20052;-63
2022/11/27 10:43:17;;;;;;;12.77;5.78;;;6.50;99.90;;;;;;5108132;28;20050;-63
2022/11/27 10:45:54;;;;;;;13.40;5.47;;;6.60;99.90;;;;;;5091651;28;20039;-63
2022/11/27 10:48:21;;;;;;;15.23;6.55;;;6.60;99.90;;;;;;5108690;28;20381;-63
2022/11/27 10:50:47;;;;;;;13.48;5.45;;;6.50;99.90;;;;;;5107951;28;20035;-63
2022/11/27 10:53:28;;;;;;;11.10;5.57;;;6.60;99.90;;;;;;5090805;28;20079;-63
2022/11/27 10:56:10;;;;;;;11.80;5.50;;;6.60;99.90;;;;;;5107776;28;20092;-64
2022/11/27 10:58:46;;;;;;;13.18;5.07;;;6.60;99.90;;;;;;5089123;28;20064;-64
2022/11/27 11:01:22;;;;;;;11.90;5.70;;;6.60;99.90;;;;;;5109566;28;20040;-63
2022/11/27 11:03:47;;;;;;;11.48;6.13;;;6.60;99.90;;;;;;5111022;28;20081;-64
2022/11/27 11:06:24;;;;;;;10.20;4.75;;;6.60;99.90;;;;;;5113112;28;20036;-63
2022/11/27 11:09:28;;;;;;;10.93;4.95;;;6.60;99.90;;;;;;5108331;28;20065;-64
2022/11/27 11:12:07;;;;;;;10.82;5.18;;;6.60;99.90;;;;;;5030791;28;20090;-64
2022/11/27 11:14:33;;;;;;;13.15;6.20;;;6.60;99.90;;;;;;5084285;28;20059;-64
2022/11/27 11:16:58;;;;;;;11.50;6.20;;;6.70;99.90;;;;;;5096363;28;20042;-64
2022/11/27 11:19:24;;;;;;;9.45;5.25;;;6.60;99.90;;;;;;5111242;28;20395;-64
2022/11/27 11:21:50;;;;;;;12.38;5.93;;;6.70;99.90;;;;;;5112281;28;20096;-64
2022/11/27 11:24:34;;;;;;;12.73;6.10;;;6.70;99.90;;;;;;5110772;28;20047;-64
2022/11/27 11:27:09;;;;;;;10.60;5.22;;;6.70;99.90;;;;;;5112097;28;20047;-64
2022/11/27 11:29:51;;;;;;;12.50;6.20;;;6.70;99.90;;;;;;5111984;28;20035;-64
2022/11/27 11:32:20;;;;;;;10.52;5.55;;;6.70;99.90;;;;;;5093013;28;20477;-64
2022/11/27 11:34:58;;;;;;;12.65;6.38;;;6.70;99.90;;;;;;5111830;28;20043;-64
2022/11/27 11:37:33;;;;;;;13.95;6.47;;;6.70;99.90;;;;;;5111666;28;20052;-66
2022/11/27 11:40:12;;;;;;;9.60;5.78;;;6.80;99.90;;;;;;5112748;28;20046;-65
2022/11/27 11:42:54;;;;;;;12.65;5.55;;;6.80;99.90;;;;;;5112025;28;20060;-65
2022/11/27 11:45:24;;;;;;;11.18;5.47;;;6.80;99.90;;;;;;5093052;28;20043;-65
2022/11/27 11:47:53;;;;;;;11.52;5.22;;;6.80;99.90;;;;;;5112423;28;20036;-65
2022/11/27 11:51:00;;;;;;;12.38;5.85;;;6.80;99.90;;;;;;5112477;28;20075;-65
2022/11/27 11:53:44;;;;;;;11.65;6.53;;;6.80;99.90;;;;;;5060648;28;20626;-66
2022/11/27 11:56:38;;;;;;;13.95;6.47;;;6.80;99.90;;;;;;5110919;28;20180;-65
2022/11/27 11:59:21;;;;;;;16.20;7.10;;;6.80;99.90;;;;;;5107645;28;20060;-65
2022/11/27 12:01:55;;;;;;;13.00;7.07;;;6.80;99.90;;;;;;5111702;28;20361;-65
2022/11/27 12:05:06;;;;;;;13.98;7.22;;;6.80;99.90;;;;;;5110502;28;20046;-65
2022/11/27 12:08:09;;;;;;;14.13;7.53;;;6.90;99.90;;;;;;5072515;28;20051;-65
2022/11/27 12:10:54;;;;;;;12.88;6.85;;;6.90;99.90;;;;;;5094139;28;20039;-65
2022/11/27 12:13:34;;;;;;;14.68;7.00;;;7.00;99.90;;;;;;5092622;28;20046;-65
2022/11/27 12:16:14;;;;;;;14.13;6.40;;;7.00;99.90;;;;;;5110515;28;20602;-65
2022/11/27 12:19:17;;;;;;;12.50;6.70;;;6.90;99.90;;;;;;5110678;28;20054;-65
2022/11/27 12:22:00;;;;;;;15.32;8.18;;;7.00;99.90;;;;;;5111645;28;20424;-65
2022/11/27 12:24:32;;;;;;;18.42;7.10;;;6.90;99.90;;;;;;5110158;28;20040;-65
2022/11/27 12:27:07;;;;;;;16.52;8.18;;;7.00;99.90;;;;;;5109494;28;20043;-65
2022/11/27 12:29:51;;;;;;;15.80;7.70;;;7.00;99.90;;;;;;5111750;28;20122;-64
2022/11/27 12:32:29;;;;;;;13.82;6.75;;;7.00;99.90;;;;;;5108370;28;20046;-67
2022/11/27 12:35:25;;;;;;;10.80;6.03;;;7.00;99.90;;;;;;5110708;28;20058;-67
2022/11/27 12:38:12;;;;;;;12.40;5.78;;;7.00;99.90;;;;;;5092385;28;20438;-67
2022/11/27 12:41:12;;;;;;;13.75;6.55;;;7.00;99.90;;;;;;5109765;28;20557;-67
2022/11/27 12:43:50;;;;;;;14.25;6.20;;;7.00;99.90;;;;;;5092579;28;20047;-68
2022/11/27 12:46:36;;;;;;;12.07;5.88;;;7.00;99.90;;;;;;5108549;28;20488;-67
2022/11/27 12:49:12;;;;;;;;;;;7.00;99.90;;;;;;5110068;28;20522;-67
2022/11/27 12:51:43;;;;;;;;;;;7.00;99.90;;;;;;5093996;28;19927;-67
2022/11/27 12:54:21;;;;;;;12.65;5.82;;;7.00;99.90;;;;;;5092579;28;20254;-67
2022/11/27 12:56:53;;;;;;;10.95;5.85;;;7.00;99.90;;;;;;5109789;28;20040;-67
2022/11/27 12:59:32;;;;;;;12.60;5.82;;;7.00;99.90;;;;;;5090312;28;20146;-67
2022/11/27 13:02:23;;;;;;;12.73;7.05;;;7.10;99.90;;;;;;5109508;28;20081;-67
2022/11/27 13:05:19;;;;;;;12.30;7.00;;;7.10;99.90;;;;;;5110101;28;20123;-67
2022/11/27 13:07:59;;;;;;;13.10;6.70;;;7.00;99.90;;;;;;5110182;28;20043;-65
2022/11/27 13:11:04;;;;;;;11.48;5.03;;;7.10;99.90;;;;;;5108423;28;20123;-67